Alberta, Alabama
Current Conditions -  °F | °C
As of 2:55 PM on Tuesday 27 Jan 2015 (Local Time) from KDYA Reporting Station
Clear Clear  
Wind Chill: 62°   Ceiling: Unl
Heat Index: 62°   Visibility: 10mi
Dew Point: 32°   Wind: 12mph
Humidity: 32%   Direction: 310°NW
Pressure: 30.04"   Gusts: 20mph
Location:  32.23°N, 87.41°W
Report Text: KDYA 272055Z AUTO 31010G17KT 280V340 10SM CLR 17/00 A3004 RMK AO2 T01680000
Loading
Personal Weather Stations






























Interactive Weather Map New forecast layout! Learn more

10-Day Weather Forecast

Advertisements
Track Severe Weather on mobile